Time,TemperatureF,DewpointF,PressureIn,WindDirection,WindDirectionDegrees,WindSpeedMPH,WindSpeedGustMPH,Humidity,HourlyPrecipIn,Conditions,Clouds,dailyrainin,SoftwareType,DateUTC
2013-04-23 00:00:00,53.0,39.9,30.19,NE,49,1.0,5.0,61,0.00,,---,0.00,VWS V14.01,2013-04-23 04:00:00,
2013-04-23 00:02:00,53.0,40.0,30.20,NE,43,2.0,3.0,61,0.00,,,0.00,weatherlink.com 1.10,2013-04-23 04:02:00,
2013-04-23 00:19:00,52.7,39.0,30.20,East,80,0.0,3.0,61,0.00,,,0.00,weatherlink.com 1.10,2013-04-23 04:19:00,
2013-04-23 00:35:00,52.3,39.0,30.20,ENE,74,0.0,2.0,61,0.00,,,0.00,weatherlink.com 1.10,2013-04-23 04:35:00,
2013-04-23 00:52:00,51.8,39.0,30.20,ENE,77,1.0,3.0,61,0.00,,,0.00,weatherlink.com 1.10,2013-04-23 04:52:00,
2013-04-23 01:08:00,51.5,38.0,30.20,NNE,32,0.0,2.0,61,0.00,,,0.00,weatherlink.com 1.10,2013-04-23 05:08:00,
2013-04-23 01:25:00,51.3,38.0,30.20,NE,53,1.0,3.0,60,0.00,,,0.00,weatherlink.com 1.10,2013-04-23 05:25:00,
2013-04-23 01:41:00,50.9,38.0,30.19,East,83,2.0,3.0,62,0.00,,,0.00,weatherlink.com 1.10,2013-04-23 05:41:00,
2013-04-23 01:58:00,50.6,38.0,30.19,NNE,21,2.0,3.0,62,0.00,,,0.00,weatherlink.com 1.10,2013-04-23 05:58:00,
2013-04-23 02:00:00,50.5,38.4,30.19,ENE,69,3.0,6.0,63,0.00,,---,0.00,VWS V14.01,2013-04-23 06:00:00,
2013-04-23 02:14:00,50.2,38.0,30.18,NE,46,2.0,5.0,63,0.00,,,0.00,weatherlink.com 1.10,2013-04-23 06:14:00,
2013-04-23 02:31:00,50.0,38.0,30.18,NE,34,1.0,5.0,64,0.00,,,0.00,weatherlink.com 1.10,2013-04-23 06:31:00,
2013-04-23 02:47:00,49.7,37.0,30.18,ENE,57,0.0,5.0,63,0.00,,,0.00,weatherlink.com 1.10,2013-04-23 06:47:00,
2013-04-23 03:03:00,49.4,38.0,30.17,East,88,0.0,4.0,64,0.00,,,0.00,weatherlink.com 1.10,2013-04-23 07:03:00,
2013-04-23 03:20:00,49.0,37.0,30.17,NE,46,2.0,3.0,64,0.00,,,0.00,weatherlink.com 1.10,2013-04-23 07:20:00,
2013-04-23 03:36:00,48.6,37.0,30.17,NE,39,2.0,3.0,65,0.00,,,0.00,weatherlink.com 1.10,2013-04-23 07:36:00,
2013-04-23 03:53:00,48.3,37.0,30.17,NE,34,3.0,4.0,66,0.00,,,0.00,weatherlink.com 1.10,2013-04-23 07:53:00,
2013-04-23 04:00:00,48.1,37.7,30.17,NE,40,0.0,7.0,67,0.00,,---,0.00,VWS V14.01,2013-04-23 08:00:00,
2013-04-23 04:09:00,47.8,37.0,30.16,East,86,0.0,4.0,67,0.00,,,0.00,weatherlink.com 1.10,2013-04-23 08:09:00,
2013-04-23 04:26:00,47.7,37.0,30.17,ESE,103,1.0,5.0,67,0.00,,,0.00,weatherlink.com 1.10,2013-04-23 08:26:00,
2013-04-23 04:42:00,47.6,37.0,30.16,ENE,73,0.0,4.0,66,0.00,,,0.00,weatherlink.com 1.10,2013-04-23 08:42:00,
2013-04-23 04:58:00,47.4,36.0,30.16,East,86,0.0,4.0,66,0.00,,,0.00,weatherlink.com 1.10,2013-04-23 08:58:00,
2013-04-23 05:16:00,47.1,36.0,30.17,ENE,76,0.0,3.0,66,0.00,,,0.00,weatherlink.com 1.10,2013-04-23 09:16:00,
2013-04-23 05:32:00,46.9,36.0,30.17,East,94,1.0,3.0,66,0.00,,,0.00,weatherlink.com 1.10,2013-04-23 09:32:00,
2013-04-23 05:48:00,46.7,36.0,30.17,NE,46,3.0,3.0,66,0.00,,,0.00,weatherlink.com 1.10,2013-04-23 09:48:00,
2013-04-23 06:00:00,46.7,35.6,30.18,ENE,69,1.0,5.0,65,0.00,,---,0.00,VWS V14.01,2013-04-23 10:00:00,
2013-04-23 06:05:00,46.6,35.0,30.18,ENE,66,0.0,2.0,65,0.00,,,0.00,weatherlink.com 1.10,2013-04-23 10:05:00,
2013-04-23 06:21:00,46.8,35.0,30.18,NE,36,3.0,4.0,64,0.00,,,0.00,weatherlink.com 1.10,2013-04-23 10:21:00,
2013-04-23 06:37:00,46.9,35.0,30.17,East,92,0.0,4.0,64,0.00,,,0.00,weatherlink.com 1.10,2013-04-23 10:37:00,
2013-04-23 06:54:00,46.9,35.0,30.17,SE,134,0.0,4.0,64,0.00,,,0.00,weatherlink.com 1.10,2013-04-23 10:54:00,
2013-04-23 07:10:00,46.9,35.0,30.17,East,96,1.0,4.0,64,0.00,,,0.00,weatherlink.com 1.10,2013-04-23 11:10:00,
2013-04-23 07:27:00,47.0,35.0,30.18,ENE,71,0.0,3.0,64,0.00,,,0.00,weatherlink.com 1.10,2013-04-23 11:27:00,
2013-04-23 07:44:00,47.8,36.0,30.19,East,94,1.0,4.0,63,0.00,,,0.00,weatherlink.com 1.10,2013-04-23 11:44:00,
2013-04-23 08:00:00,49.0,36.0,30.19,ENE,71,0.0,6.0,61,0.00,,,0.00,weatherlink.com 1.10,2013-04-23 12:00:00,
2013-04-23 08:16:00,50.3,36.0,30.20,ESE,110,1.0,4.0,59,0.00,,,0.00,weatherlink.com 1.10,2013-04-23 12:16:00,
2013-04-23 08:32:00,51.4,36.0,30.20,NE,49,2.0,7.0,57,0.00,,,0.00,weatherlink.com 1.10,2013-04-23 12:32:00,
2013-04-23 08:50:00,52.4,37.0,30.20,NE,49,2.0,8.0,56,0.00,,,0.00,weatherlink.com 1.10,2013-04-23 12:50:00,
2013-04-23 09:06:00,53.1,37.0,30.20,East,88,5.0,11.0,55,0.00,,,0.00,weatherlink.com 1.10,2013-04-23 13:06:00,
2013-04-23 09:23:00,54.2,38.0,30.20,SE,127,2.0,9.0,55,0.00,,,0.00,weatherlink.com 1.10,2013-04-23 13:23:00,
2013-04-23 09:38:00,54.7,39.0,30.21,ESE,105,3.0,12.0,55,0.00,,,0.00,weatherlink.com 1.10,2013-04-23 13:38:00,
2013-04-23 09:55:00,55.4,40.0,30.21,ESE,106,2.0,7.0,56,0.00,,,0.00,weatherlink.com 1.10,2013-04-23 13:55:00,
2013-04-23 10:00:00,55.3,39.4,30.21,ENE,64,5.0,13.0,55,0.00,,---,0.00,VWS V14.01,2013-04-23 14:00:00,
2013-04-23 10:11:00,55.8,40.0,30.21,North,11,3.0,8.0,55,0.00,,,0.00,weatherlink.com 1.10,2013-04-23 14:11:00,
2013-04-23 10:28:00,56.2,40.0,30.20,NE,51,4.0,12.0,56,0.00,,,0.00,weatherlink.com 1.10,2013-04-23 14:28:00,
2013-04-23 10:44:00,56.4,41.0,30.20,NE,36,5.0,10.0,56,0.00,,,0.00,weatherlink.com 1.10,2013-04-23 14:44:00,
2013-04-23 11:00:00,57.8,41.0,30.21,North,355,1.0,8.0,54,0.00,,,0.00,weatherlink.com 1.10,2013-04-23 15:00:00,
2013-04-23 11:17:00,59.1,41.0,30.22,WSW,240,2.0,8.0,52,0.00,,,0.00,weatherlink.com 1.10,2013-04-23 15:17:00,
2013-04-23 11:34:00,60.0,40.0,30.21,SE,143,0.0,7.0,48,0.00,,,0.00,weatherlink.com 1.10,2013-04-23 15:34:00,
2013-04-23 11:51:00,60.9,40.0,30.20,ENE,78,4.0,5.0,47,0.00,,,0.00,weatherlink.com 1.10,2013-04-23 15:51:00,
2013-04-23 12:00:00,61.0,40.7,30.20,NE,47,6.0,11.0,47,0.00,,---,0.00,VWS V14.01,2013-04-23 16:00:00,
2013-04-23 12:07:00,61.2,41.0,30.20,ENE,57,5.0,6.0,47,0.00,,,0.00,weatherlink.com 1.10,2013-04-23 16:07:00,
2013-04-23 12:24:00,63.4,41.0,30.19,SSE,157,2.0,8.0,44,0.00,,,0.00,weatherlink.com 1.10,2013-04-23 16:24:00,
2013-04-23 12:39:00,63.7,41.0,30.18,ESE,115,3.0,7.0,43,0.00,,,0.00,weatherlink.com 1.10,2013-04-23 16:39:00,
2013-04-23 12:56:00,63.9,43.0,30.17,East,79,1.0,8.0,46,0.00,,,0.00,weatherlink.com 1.10,2013-04-23 16:56:00,
2013-04-23 13:12:00,64.5,42.0,30.16,ENE,58,0.0,7.0,44,0.00,,,0.00,weatherlink.com 1.10,2013-04-23 17:12:00,
2013-04-23 13:29:00,65.2,43.0,30.15,SSE,163,0.0,11.0,44,0.00,,,0.00,weatherlink.com 1.10,2013-04-23 17:29:00,
2013-04-23 13:46:00,67.3,43.0,30.14,South,171,4.0,7.0,42,0.00,,,0.00,weatherlink.com 1.10,2013-04-23 17:46:00,
2013-04-23 14:00:00,67.4,41.6,30.15,SE,127,2.0,11.0,39,0.00,,---,0.00,VWS V14.01,2013-04-23 18:00:00,
2013-04-23 14:02:00,67.4,42.0,30.14,SE,136,4.0,8.0,40,0.00,,,0.00,weatherlink.com 1.10,2013-04-23 18:02:00,
2013-04-23 14:18:00,68.5,43.0,30.14,ESE,109,3.0,7.0,40,0.00,,,0.00,weatherlink.com 1.10,2013-04-23 18:18:00,
2013-04-23 14:35:00,68.6,44.0,30.13,ESE,119,3.0,8.0,42,0.00,,,0.00,weatherlink.com 1.10,2013-04-23 18:35:00,
2013-04-23 14:51:00,69.5,45.0,30.12,SSE,161,4.0,6.0,42,0.00,,,0.00,weatherlink.com 1.10,2013-04-23 18:51:00,
2013-04-23 15:08:00,69.9,45.0,30.12,NE,54,3.0,7.0,41,0.00,,,0.00,weatherlink.com 1.10,2013-04-23 19:08:00,
2013-04-23 15:25:00,71.7,46.0,30.11,East,82,2.0,4.0,40,0.00,,,0.00,weatherlink.com 1.10,2013-04-23 19:25:00,
2013-04-23 15:41:00,71.4,47.0,30.10,SE,137,4.0,7.0,42,0.00,,,0.00,weatherlink.com 1.10,2013-04-23 19:41:00,
2013-04-23 15:57:00,71.2,47.0,30.09,SSE,157,5.0,5.0,42,0.00,,,0.00,weatherlink.com 1.10,2013-04-23 19:57:00,
2013-04-23 16:00:00,71.8,47.5,30.09,ESE,105,4.0,9.0,42,0.00,,---,0.00,VWS V14.01,2013-04-23 20:00:00,
2013-04-23 16:13:00,71.8,47.0,30.09,SW,231,2.0,6.0,42,0.00,,,0.00,weatherlink.com 1.10,2013-04-23 20:13:00,
2013-04-23 16:30:00,72.1,48.0,30.08,ENE,59,2.0,7.0,42,0.00,,,0.00,weatherlink.com 1.10,2013-04-23 20:30:00,
2013-04-23 16:47:00,72.5,47.0,30.08,SSE,163,4.0,10.0,40,0.00,,,0.00,weatherlink.com 1.10,2013-04-23 20:47:00,
2013-04-23 17:02:00,71.9,47.0,30.07,ENE,59,7.0,7.0,42,0.00,,,0.00,weatherlink.com 1.10,2013-04-23 21:02:00,
2013-04-23 17:20:00,72.0,48.0,30.07,SE,134,5.0,7.0,43,0.00,,,0.00,weatherlink.com 1.10,2013-04-23 21:20:00,
2013-04-23 17:36:00,71.5,47.0,30.07,East,82,1.0,6.0,42,0.00,,,0.00,weatherlink.com 1.10,2013-04-23 21:36:00,
2013-04-23 17:53:00,72.2,46.0,30.07,SSE,155,3.0,9.0,40,0.00,,,0.00,weatherlink.com 1.10,2013-04-23 21:53:00,
2013-04-23 18:00:00,71.7,46.1,30.06,NE,38,1.0,9.0,40,0.00,,---,0.00,VWS V14.01,2013-04-23 22:00:00,
2013-04-23 18:09:00,71.6,48.0,30.06,SE,137,4.0,8.0,43,0.00,,,0.00,weatherlink.com 1.10,2013-04-23 22:09:00,
2013-04-23 18:25:00,71.5,48.0,30.06,South,175,3.0,6.0,43,0.00,,,0.00,weatherlink.com 1.10,2013-04-23 22:25:00,
2013-04-23 18:41:00,71.1,47.0,30.06,SE,133,1.0,5.0,43,0.00,,,0.00,weatherlink.com 1.10,2013-04-23 22:41:00,
2013-04-23 18:58:00,70.7,48.0,30.06,South,182,6.0,7.0,44,0.00,,,0.00,weatherlink.com 1.10,2013-04-23 22:58:00,
2013-04-23 19:15:00,70.4,48.0,30.05,East,94,3.0,7.0,45,0.00,,,0.00,weatherlink.com 1.10,2013-04-23 23:15:00,
2013-04-23 19:31:00,69.9,48.0,30.05,SSE,158,2.0,7.0,46,0.00,,,0.00,weatherlink.com 1.10,2013-04-23 23:31:00,
2013-04-23 19:47:00,69.2,48.0,30.06,SE,136,1.0,5.0,47,0.00,,,0.00,weatherlink.com 1.10,2013-04-23 23:47:00,
2013-04-23 20:00:00,68.4,48.5,30.06,SE,128,1.0,7.0,49,0.00,,---,0.00,VWS V14.01,2013-04-24 00:00:00,
2013-04-23 20:03:00,68.3,48.0,30.05,East,84,0.0,3.0,49,0.00,,,0.00,weatherlink.com 1.10,2013-04-24 00:03:00,
2013-04-23 20:20:00,67.5,49.0,30.06,ESE,123,1.0,2.0,51,0.00,,,0.00,weatherlink.com 1.10,2013-04-24 00:20:00,
2013-04-23 20:37:00,66.6,49.0,30.06,SSE,165,0.0,2.0,53,0.00,,,0.00,weatherlink.com 1.10,2013-04-24 00:37:00,
2013-04-23 20:53:00,65.9,49.0,30.07,SE,140,0.0,3.0,54,0.00,,,0.00,weatherlink.com 1.10,2013-04-24 00:53:00,
2013-04-23 21:09:00,65.4,49.0,30.08,SE,136,1.0,3.0,55,0.00,,,0.00,weatherlink.com 1.10,2013-04-24 01:09:00,
2013-04-23 21:26:00,65.0,49.0,30.08,SE,136,0.0,2.0,57,0.00,,,0.00,weatherlink.com 1.10,2013-04-24 01:26:00,
2013-04-23 21:42:00,64.4,49.0,30.09,SE,136,0.0,1.0,58,0.00,,,0.00,weatherlink.com 1.10,2013-04-24 01:42:00,
2013-04-23 21:59:00,63.8,49.0,30.09,SE,136,0.0,0.0,59,0.00,,,0.00,weatherlink.com 1.10,2013-04-24 01:59:00,
2013-04-23 22:00:00,63.7,49.1,30.09,SE,136,0.0,3.0,59,0.00,,---,0.00,VWS V14.01,2013-04-24 02:00:00,
2013-04-23 22:31:00,63.1,49.0,30.09,SSE,153,0.0,3.0,61,0.00,,,0.00,weatherlink.com 1.10,2013-04-24 02:31:00,
2013-04-23 23:04:00,62.5,49.0,30.09,SSE,148,0.0,2.0,62,0.00,,,0.00,weatherlink.com 1.10,2013-04-24 03:04:00,
2013-04-23 23:20:00,62.1,50.0,30.09,SE,142,0.0,3.0,64,0.00,,,0.00,weatherlink.com 1.10,2013-04-24 03:20:00,
2013-04-23 23:37:00,62.0,50.0,30.09,SE,142,1.0,1.0,64,0.00,,,0.00,weatherlink.com 1.10,2013-04-24 03:37:00,
2013-04-23 23:53:00,61.6,50.0,30.09,SE,143,0.0,1.0,65,0.00,,,0.00,weatherlink.com 1.10,2013-04-24 03:53:00,